sensor_id;sensor_type;location;lat;lon;timestamp;P1;durP1;ratioP1;P2;durP2;ratioP2
38653;SDS011;24413;52.450;20.706;2022-09-25T00:00:33;46.38;;;26.80;;
38653;SDS011;24413;52.450;20.706;2022-09-25T00:02:58;33.13;;;24.15;;
38653;SDS011;24413;52.450;20.706;2022-09-25T00:05:23;48.92;;;26.23;;
38653;SDS011;24413;52.450;20.706;2022-09-25T00:07:49;39.45;;;26.65;;
38653;SDS011;24413;52.450;20.706;2022-09-25T00:10:14;48.40;;;25.90;;
38653;SDS011;24413;52.450;20.706;2022-09-25T00:12:39;39.53;;;25.73;;
38653;SDS011;24413;52.450;20.706;2022-09-25T00:15:06;40.70;;;25.98;;
38653;SDS011;24413;52.450;20.706;2022-09-25T00:17:32;39.60;;;26.05;;
38653;SDS011;24413;52.450;20.706;2022-09-25T00:19:58;41.28;;;26.45;;
38653;SDS011;24413;52.450;20.706;2022-09-25T00:22:23;41.03;;;25.20;;
38653;SDS011;24413;52.450;20.706;2022-09-25T00:24:49;39.67;;;26.17;;
38653;SDS011;24413;52.450;20.706;2022-09-25T00:27:15;39.08;;;25.75;;
38653;SDS011;24413;52.450;20.706;2022-09-25T00:29:41;42.85;;;26.80;;
38653;SDS011;24413;52.450;20.706;2022-09-25T00:32:08;42.88;;;25.75;;
38653;SDS011;24413;52.450;20.706;2022-09-25T00:34:35;50.53;;;28.67;;
38653;SDS011;24413;52.450;20.706;2022-09-25T00:37:01;41.30;;;26.45;;
38653;SDS011;24413;52.450;20.706;2022-09-25T00:39:26;49.47;;;29.38;;
38653;SDS011;24413;52.450;20.706;2022-09-25T00:41:52;41.13;;;27.08;;
38653;SDS011;24413;52.450;20.706;2022-09-25T00:50:17;45.78;;;26.40;;
38653;SDS011;24413;52.450;20.706;2022-09-25T00:53:11;45.92;;;26.63;;
38653;SDS011;24413;52.450;20.706;2022-09-25T00:55:39;41.17;;;25.75;;
38653;SDS011;24413;52.450;20.706;2022-09-25T00:58:07;40.53;;;25.85;;
38653;SDS011;24413;52.450;20.706;2022-09-25T01:00:32;39.47;;;25.10;;
38653;SDS011;24413;52.450;20.706;2022-09-25T01:02:58;36.80;;;24.42;;
38653;SDS011;24413;52.450;20.706;2022-09-25T01:05:25;48.88;;;25.25;;
38653;SDS011;24413;52.450;20.706;2022-09-25T01:07:54;37.53;;;25.80;;
38653;SDS011;24413;52.450;20.706;2022-09-25T01:10:21;36.38;;;26.65;;
38653;SDS011;24413;52.450;20.706;2022-09-25T01:12:47;45.92;;;27.67;;
38653;SDS011;24413;52.450;20.706;2022-09-25T01:15:14;44.00;;;28.00;;
38653;SDS011;24413;52.450;20.706;2022-09-25T01:26:07;42.28;;;29.27;;
38653;SDS011;24413;52.450;20.706;2022-09-25T01:28:45;45.53;;;29.63;;
38653;SDS011;24413;52.450;20.706;2022-09-25T01:31:21;42.75;;;30.05;;
38653;SDS011;24413;52.450;20.706;2022-09-25T01:33:54;48.88;;;31.48;;
38653;SDS011;24413;52.450;20.706;2022-09-25T01:36:24;50.78;;;30.58;;
38653;SDS011;24413;52.450;20.706;2022-09-25T01:39:06;43.40;;;31.38;;
38653;SDS011;24413;52.450;20.706;2022-09-25T01:46:36;47.95;;;31.60;;
38653;SDS011;24413;52.450;20.706;2022-09-25T01:49:08;53.95;;;31.58;;
38653;SDS011;24413;52.450;20.706;2022-09-25T01:51:38;46.75;;;33.13;;
38653;SDS011;24413;52.450;20.706;2022-09-25T01:54:12;45.80;;;30.10;;
38653;SDS011;24413;52.450;20.706;2022-09-25T01:56:46;46.30;;;30.42;;
38653;SDS011;24413;52.450;20.706;2022-09-25T01:59:18;44.58;;;31.08;;
38653;SDS011;24413;52.450;20.706;2022-09-25T02:01:48;45.95;;;31.85;;
38653;SDS011;24413;52.450;20.706;2022-09-25T02:04:31;46.28;;;30.70;;
38653;SDS011;24413;52.450;20.706;2022-09-25T02:07:01;51.53;;;32.10;;
38653;SDS011;24413;52.450;20.706;2022-09-25T02:09:33;45.63;;;30.58;;
38653;SDS011;24413;52.450;20.706;2022-09-25T02:12:08;47.23;;;31.43;;
38653;SDS011;24413;52.450;20.706;2022-09-25T02:14:44;49.38;;;32.30;;
38653;SDS011;24413;52.450;20.706;2022-09-25T02:17:14;53.22;;;31.73;;
38653;SDS011;24413;52.450;20.706;2022-09-25T02:20:04;45.22;;;30.65;;
38653;SDS011;24413;52.450;20.706;2022-09-25T02:22:49;46.30;;;29.77;;
38653;SDS011;24413;52.450;20.706;2022-09-25T02:25:18;48.63;;;29.23;;
38653;SDS011;24413;52.450;20.706;2022-09-25T02:27:49;48.15;;;29.95;;
38653;SDS011;24413;52.450;20.706;2022-09-25T02:30:15;46.83;;;31.05;;
38653;SDS011;24413;52.450;20.706;2022-09-25T02:32:41;43.38;;;30.10;;
38653;SDS011;24413;52.450;20.706;2022-09-25T02:35:06;52.67;;;31.27;;
38653;SDS011;24413;52.450;20.706;2022-09-25T02:37:33;45.53;;;29.95;;
38653;SDS011;24413;52.450;20.706;2022-09-25T02:39:59;56.38;;;31.42;;
38653;SDS011;24413;52.450;20.706;2022-09-25T02:42:37;53.65;;;31.15;;
38653;SDS011;24413;52.450;20.706;2022-09-25T02:50:24;50.00;;;29.42;;
38653;SDS011;24413;52.450;20.706;2022-09-25T02:55:31;47.80;;;29.65;;
38653;SDS011;24413;52.450;20.706;2022-09-25T02:58:00;41.08;;;27.90;;
38653;SDS011;24413;52.450;20.706;2022-09-25T03:00:47;41.17;;;28.35;;
38653;SDS011;24413;52.450;20.706;2022-09-25T03:03:16;51.75;;;30.52;;
38653;SDS011;24413;52.450;20.706;2022-09-25T03:05:43;41.00;;;28.42;;
38653;SDS011;24413;52.450;20.706;2022-09-25T03:08:09;47.88;;;28.45;;
38653;SDS011;24413;52.450;20.706;2022-09-25T03:10:53;45.63;;;30.17;;
38653;SDS011;24413;52.450;20.706;2022-09-25T03:13:20;50.88;;;30.13;;
38653;SDS011;24413;52.450;20.706;2022-09-25T03:15:48;49.45;;;29.90;;
38653;SDS011;24413;52.450;20.706;2022-09-25T03:18:16;46.53;;;28.60;;
38653;SDS011;24413;52.450;20.706;2022-09-25T03:20:43;44.72;;;28.00;;
38653;SDS011;24413;52.450;20.706;2022-09-25T03:23:08;39.95;;;28.05;;
38653;SDS011;24413;52.450;20.706;2022-09-25T03:25:35;46.15;;;28.85;;
38653;SDS011;24413;52.450;20.706;2022-09-25T03:28:01;46.35;;;28.15;;
38653;SDS011;24413;52.450;20.706;2022-09-25T03:30:27;39.85;;;28.10;;
38653;SDS011;24413;52.450;20.706;2022-09-25T03:32:53;47.88;;;29.38;;
38653;SDS011;24413;52.450;20.706;2022-09-25T03:35:18;45.10;;;29.77;;
38653;SDS011;24413;52.450;20.706;2022-09-25T03:37:44;42.00;;;28.23;;
38653;SDS011;24413;52.450;20.706;2022-09-25T03:40:09;50.70;;;30.40;;
38653;SDS011;24413;52.450;20.706;2022-09-25T03:42:36;45.70;;;30.60;;
38653;SDS011;24413;52.450;20.706;2022-09-25T03:45:02;42.90;;;29.58;;
38653;SDS011;24413;52.450;20.706;2022-09-25T03:47:28;54.67;;;31.00;;
38653;SDS011;24413;52.450;20.706;2022-09-25T03:49:53;47.80;;;29.08;;
38653;SDS011;24413;52.450;20.706;2022-09-25T03:52:19;49.97;;;29.08;;
38653;SDS011;24413;52.450;20.706;2022-09-25T03:54:45;44.55;;;28.42;;
38653;SDS011;24413;52.450;20.706;2022-09-25T03:57:11;45.08;;;29.92;;
38653;SDS011;24413;52.450;20.706;2022-09-25T03:59:38;45.92;;;29.02;;
38653;SDS011;24413;52.450;20.706;2022-09-25T04:02:04;42.58;;;28.70;;
38653;SDS011;24413;52.450;20.706;2022-09-25T04:04:29;43.13;;;28.60;;
38653;SDS011;24413;52.450;20.706;2022-09-25T04:06:56;46.25;;;28.63;;
38653;SDS011;24413;52.450;20.706;2022-09-25T04:09:21;42.70;;;29.02;;
38653;SDS011;24413;52.450;20.706;2022-09-25T04:11:47;42.72;;;28.27;;
38653;SDS011;24413;52.450;20.706;2022-09-25T04:14:12;41.67;;;28.42;;
38653;SDS011;24413;52.450;20.706;2022-09-25T04:16:39;46.75;;;28.08;;
38653;SDS011;24413;52.450;20.706;2022-09-25T04:19:04;45.90;;;29.00;;
38653;SDS011;24413;52.450;20.706;2022-09-25T04:21:30;38.38;;;27.50;;
38653;SDS011;24413;52.450;20.706;2022-09-25T04:23:56;46.35;;;28.30;;
38653;SDS011;24413;52.450;20.706;2022-09-25T04:26:40;40.97;;;27.05;;
38653;SDS011;24413;52.450;20.706;2022-09-25T04:29:05;41.95;;;27.23;;
38653;SDS011;24413;52.450;20.706;2022-09-25T04:31:31;43.45;;;27.85;;
38653;SDS011;24413;52.450;20.706;2022-09-25T04:33:56;50.30;;;28.20;;
38653;SDS011;24413;52.450;20.706;2022-09-25T04:36:22;42.78;;;28.25;;
38653;SDS011;24413;52.450;20.706;2022-09-25T04:38:47;43.33;;;27.95;;
38653;SDS011;24413;52.450;20.706;2022-09-25T04:41:13;41.90;;;27.48;;
38653;SDS011;24413;52.450;20.706;2022-09-25T04:43:40;39.97;;;27.00;;
38653;SDS011;24413;52.450;20.706;2022-09-25T04:46:08;43.88;;;27.10;;
38653;SDS011;24413;52.450;20.706;2022-09-25T04:48:35;44.58;;;29.00;;
38653;SDS011;24413;52.450;20.706;2022-09-25T04:51:02;39.70;;;26.05;;
38653;SDS011;24413;52.450;20.706;2022-09-25T04:53:28;43.67;;;27.33;;
38653;SDS011;24413;52.450;20.706;2022-09-25T04:55:59;46.83;;;27.75;;
38653;SDS011;24413;52.450;20.706;2022-09-25T04:58:25;42.30;;;27.55;;
38653;SDS011;24413;52.450;20.706;2022-09-25T05:00:51;48.50;;;27.83;;
38653;SDS011;24413;52.450;20.706;2022-09-25T05:03:16;43.85;;;27.85;;
38653;SDS011;24413;52.450;20.706;2022-09-25T05:05:41;47.53;;;26.60;;
38653;SDS011;24413;52.450;20.706;2022-09-25T05:08:07;39.35;;;26.85;;
38653;SDS011;24413;52.450;20.706;2022-09-25T05:10:33;45.70;;;28.13;;
38653;SDS011;24413;52.450;20.706;2022-09-25T05:12:59;41.38;;;26.45;;
38653;SDS011;24413;52.450;20.706;2022-09-25T05:15:26;47.40;;;28.77;;
38653;SDS011;24413;52.450;20.706;2022-09-25T05:20:24;44.72;;;26.40;;
38653;SDS011;24413;52.450;20.706;2022-09-25T05:22:53;42.78;;;27.98;;
38653;SDS011;24413;52.450;20.706;2022-09-25T05:25:19;42.03;;;28.48;;
38653;SDS011;24413;52.450;20.706;2022-09-25T05:27:47;41.85;;;27.83;;
38653;SDS011;24413;52.450;20.706;2022-09-25T05:30:12;42.70;;;27.13;;
38653;SDS011;24413;52.450;20.706;2022-09-25T05:32:38;40.42;;;28.65;;
38653;SDS011;24413;52.450;20.706;2022-09-25T05:35:04;45.67;;;27.92;;
38653;SDS011;24413;52.450;20.706;2022-09-25T05:37:29;41.38;;;27.25;;
38653;SDS011;24413;52.450;20.706;2022-09-25T05:39:55;42.10;;;27.05;;
38653;SDS011;24413;52.450;20.706;2022-09-25T05:42:20;42.92;;;29.00;;
38653;SDS011;24413;52.450;20.706;2022-09-25T05:44:46;41.55;;;27.58;;
38653;SDS011;24413;52.450;20.706;2022-09-25T05:47:12;38.05;;;27.35;;
38653;SDS011;24413;52.450;20.706;2022-09-25T05:49:38;41.00;;;26.75;;
38653;SDS011;24413;52.450;20.706;2022-09-25T05:52:03;40.55;;;27.77;;
38653;SDS011;24413;52.450;20.706;2022-09-25T05:54:28;48.42;;;27.92;;
38653;SDS011;24413;52.450;20.706;2022-09-25T05:56:54;44.20;;;27.25;;
38653;SDS011;24413;52.450;20.706;2022-09-25T05:59:19;41.55;;;25.02;;
38653;SDS011;24413;52.450;20.706;2022-09-25T06:01:45;45.83;;;26.52;;
38653;SDS011;24413;52.450;20.706;2022-09-25T06:04:10;39.67;;;27.23;;
38653;SDS011;24413;52.450;20.706;2022-09-25T06:06:35;44.17;;;26.80;;
38653;SDS011;24413;52.450;20.706;2022-09-25T06:09:01;43.47;;;26.15;;
38653;SDS011;24413;52.450;20.706;2022-09-25T06:11:26;40.50;;;26.23;;
38653;SDS011;24413;52.450;20.706;2022-09-25T06:13:52;35.45;;;24.63;;
38653;SDS011;24413;52.450;20.706;2022-09-25T06:16:21;39.70;;;25.70;;
38653;SDS011;24413;52.450;20.706;2022-09-25T06:18:46;42.20;;;25.35;;
38653;SDS011;24413;52.450;20.706;2022-09-25T06:21:12;42.45;;;27.88;;
38653;SDS011;24413;52.450;20.706;2022-09-25T06:23:37;43.20;;;28.00;;
38653;SDS011;24413;52.450;20.706;2022-09-25T06:26:03;37.17;;;23.05;;
38653;SDS011;24413;52.450;20.706;2022-09-25T06:28:30;40.45;;;26.17;;
38653;SDS011;24413;52.450;20.706;2022-09-25T06:30:58;33.92;;;26.42;;
38653;SDS011;24413;52.450;20.706;2022-09-25T06:33:24;38.03;;;25.35;;
38653;SDS011;24413;52.450;20.706;2022-09-25T06:35:49;38.20;;;25.08;;
38653;SDS011;24413;52.450;20.706;2022-09-25T06:38:15;34.55;;;23.48;;
38653;SDS011;24413;52.450;20.706;2022-09-25T06:40:41;33.83;;;24.30;;
38653;SDS011;24413;52.450;20.706;2022-09-25T06:43:10;35.72;;;23.80;;
38653;SDS011;24413;52.450;20.706;2022-09-25T06:45:37;33.50;;;24.45;;
38653;SDS011;24413;52.450;20.706;2022-09-25T06:50:49;34.08;;;25.10;;
38653;SDS011;24413;52.450;20.706;2022-09-25T06:53:16;38.08;;;26.38;;
38653;SDS011;24413;52.450;20.706;2022-09-25T06:55:42;37.25;;;24.92;;
38653;SDS011;24413;52.450;20.706;2022-09-25T06:58:14;38.03;;;25.38;;
38653;SDS011;24413;52.450;20.706;2022-09-25T07:00:43;39.10;;;26.17;;
38653;SDS011;24413;52.450;20.706;2022-09-25T07:03:10;38.40;;;26.17;;
38653;SDS011;24413;52.450;20.706;2022-09-25T07:05:54;41.38;;;26.38;;
38653;SDS011;24413;52.450;20.706;2022-09-25T07:08:19;36.42;;;25.33;;
38653;SDS011;24413;52.450;20.706;2022-09-25T07:10:49;32.15;;;22.42;;
38653;SDS011;24413;52.450;20.706;2022-09-25T07:13:16;34.00;;;23.48;;
38653;SDS011;24413;52.450;20.706;2022-09-25T07:15:42;32.95;;;23.70;;
38653;SDS011;24413;52.450;20.706;2022-09-25T07:18:14;34.63;;;23.65;;
38653;SDS011;24413;52.450;20.706;2022-09-25T07:20:39;38.72;;;25.67;;
38653;SDS011;24413;52.450;20.706;2022-09-25T07:23:04;39.72;;;24.58;;
38653;SDS011;24413;52.450;20.706;2022-09-25T07:25:30;34.60;;;24.85;;
38653;SDS011;24413;52.450;20.706;2022-09-25T07:27:56;30.85;;;23.55;;
38653;SDS011;24413;52.450;20.706;2022-09-25T07:30:23;34.30;;;23.92;;
38653;SDS011;24413;52.450;20.706;2022-09-25T07:32:49;38.65;;;23.90;;
38653;SDS011;24413;52.450;20.706;2022-09-25T07:35:14;50.17;;;27.98;;
38653;SDS011;24413;52.450;20.706;2022-09-25T07:37:39;33.97;;;22.83;;
38653;SDS011;24413;52.450;20.706;2022-09-25T07:40:05;32.90;;;22.90;;
38653;SDS011;24413;52.450;20.706;2022-09-25T07:42:31;35.22;;;24.15;;
38653;SDS011;24413;52.450;20.706;2022-09-25T07:44:56;31.10;;;22.45;;
38653;SDS011;24413;52.450;20.706;2022-09-25T07:47:22;34.75;;;24.98;;
38653;SDS011;24413;52.450;20.706;2022-09-25T07:49:47;32.45;;;23.98;;
38653;SDS011;24413;52.450;20.706;2022-09-25T07:52:12;32.95;;;23.88;;
38653;SDS011;24413;52.450;20.706;2022-09-25T07:54:38;32.83;;;23.33;;
38653;SDS011;24413;52.450;20.706;2022-09-25T07:57:03;33.42;;;23.58;;
38653;SDS011;24413;52.450;20.706;2022-09-25T07:59:29;34.55;;;24.35;;
38653;SDS011;24413;52.450;20.706;2022-09-25T08:01:54;37.40;;;24.45;;
38653;SDS011;24413;52.450;20.706;2022-09-25T08:04:19;31.50;;;22.88;;
38653;SDS011;24413;52.450;20.706;2022-09-25T08:06:45;33.38;;;23.00;;
38653;SDS011;24413;52.450;20.706;2022-09-25T08:09:10;34.53;;;22.88;;
38653;SDS011;24413;52.450;20.706;2022-09-25T08:11:36;34.97;;;23.17;;
38653;SDS011;24413;52.450;20.706;2022-09-25T08:14:02;30.13;;;21.65;;
38653;SDS011;24413;52.450;20.706;2022-09-25T08:16:27;26.67;;;21.02;;
38653;SDS011;24413;52.450;20.706;2022-09-25T08:18:52;25.92;;;19.60;;
38653;SDS011;24413;52.450;20.706;2022-09-25T08:21:18;28.85;;;20.77;;
38653;SDS011;24413;52.450;20.706;2022-09-25T08:23:48;33.03;;;22.02;;
38653;SDS011;24413;52.450;20.706;2022-09-25T08:26:15;35.08;;;23.40;;
38653;SDS011;24413;52.450;20.706;2022-09-25T08:28:41;28.17;;;19.55;;
38653;SDS011;24413;52.450;20.706;2022-09-25T08:31:06;32.75;;;19.70;;
38653;SDS011;24413;52.450;20.706;2022-09-25T08:33:33;29.40;;;19.67;;
38653;SDS011;24413;52.450;20.706;2022-09-25T08:36:02;23.48;;;20.08;;
38653;SDS011;24413;52.450;20.706;2022-09-25T08:38:29;23.63;;;17.35;;
38653;SDS011;24413;52.450;20.706;2022-09-25T08:41:02;25.48;;;17.38;;
38653;SDS011;24413;52.450;20.706;2022-09-25T08:43:32;25.20;;;17.83;;
38653;SDS011;24413;52.450;20.706;2022-09-25T08:46:00;25.02;;;17.73;;
38653;SDS011;24413;52.450;20.706;2022-09-25T08:48:53;25.08;;;16.58;;
38653;SDS011;24413;52.450;20.706;2022-09-25T08:51:27;21.27;;;14.52;;
38653;SDS011;24413;52.450;20.706;2022-09-25T08:53:53;22.80;;;13.90;;
38653;SDS011;24413;52.450;20.706;2022-09-25T08:56:18;22.50;;;14.45;;
38653;SDS011;24413;52.450;20.706;2022-09-25T08:58:52;17.50;;;13.55;;
38653;SDS011;24413;52.450;20.706;2022-09-25T09:01:20;22.25;;;13.23;;
38653;SDS011;24413;52.450;20.706;2022-09-25T09:03:53;20.58;;;12.50;;
38653;SDS011;24413;52.450;20.706;2022-09-25T09:06:22;22.30;;;14.02;;
38653;SDS011;24413;52.450;20.706;2022-09-25T09:08:52;23.48;;;14.27;;
38653;SDS011;24413;52.450;20.706;2022-09-25T09:11:22;21.25;;;12.88;;
38653;SDS011;24413;52.450;20.706;2022-09-25T09:13:55;19.42;;;12.02;;
38653;SDS011;24413;52.450;20.706;2022-09-25T09:16:45;20.50;;;13.85;;
38653;SDS011;24413;52.450;20.706;2022-09-25T09:19:12;16.88;;;12.07;;
38653;SDS011;24413;52.450;20.706;2022-09-25T09:37:56;12.40;;;9.35;;
38653;SDS011;24413;52.450;20.706;2022-09-25T09:40:45;12.90;;;8.13;;
38653;SDS011;24413;52.450;20.706;2022-09-25T09:49:20;9.93;;;8.30;;
38653;SDS011;24413;52.450;20.706;2022-09-25T09:51:57;8.55;;;6.60;;
38653;SDS011;24413;52.450;20.706;2022-09-25T09:54:43;10.15;;;6.30;;
38653;SDS011;24413;52.450;20.706;2022-09-25T10:04:47;10.57;;;6.43;;
38653;SDS011;24413;52.450;20.706;2022-09-25T10:07:15;15.82;;;7.90;;
38653;SDS011;24413;52.450;20.706;2022-09-25T10:09:42;11.45;;;6.55;;
38653;SDS011;24413;52.450;20.706;2022-09-25T10:12:12;26.85;;;17.52;;
38653;SDS011;24413;52.450;20.706;2022-09-25T10:14:45;103.13;;;70.88;;
38653;SDS011;24413;52.450;20.706;2022-09-25T10:17:11;12.07;;;7.10;;
38653;SDS011;24413;52.450;20.706;2022-09-25T10:19:56;10.65;;;6.20;;
38653;SDS011;24413;52.450;20.706;2022-09-25T10:22:27;6.53;;;5.32;;
38653;SDS011;24413;52.450;20.706;2022-09-25T10:24:58;5.82;;;4.40;;
38653;SDS011;24413;52.450;20.706;2022-09-25T10:27:42;8.88;;;5.07;;
38653;SDS011;24413;52.450;20.706;2022-09-25T10:32:47;6.05;;;4.13;;
38653;SDS011;24413;52.450;20.706;2022-09-25T10:35:19;12.70;;;4.63;;
38653;SDS011;24413;52.450;20.706;2022-09-25T10:37:50;7.13;;;3.95;;
38653;SDS011;24413;52.450;20.706;2022-09-25T10:40:27;6.18;;;3.88;;
38653;SDS011;24413;52.450;20.706;2022-09-25T10:45:39;4.40;;;4.05;;
38653;SDS011;24413;52.450;20.706;2022-09-25T10:51:14;8.52;;;4.60;;
38653;SDS011;24413;52.450;20.706;2022-09-25T10:53:44;7.35;;;4.38;;
38653;SDS011;24413;52.450;20.706;2022-09-25T10:56:12;6.93;;;3.33;;
38653;SDS011;24413;52.450;20.706;2022-09-25T10:58:47;3.85;;;3.47;;
38653;SDS011;24413;52.450;20.706;2022-09-25T11:01:16;6.22;;;3.10;;
38653;SDS011;24413;52.450;20.706;2022-09-25T11:08:39;5.43;;;4.05;;
38653;SDS011;24413;52.450;20.706;2022-09-25T11:11:06;5.05;;;3.85;;
38653;SDS011;24413;52.450;20.706;2022-09-25T11:13:47;5.65;;;4.30;;
38653;SDS011;24413;52.450;20.706;2022-09-25T11:16:14;4.32;;;3.92;;
38653;SDS011;24413;52.450;20.706;2022-09-25T11:18:41;4.28;;;3.88;;
38653;SDS011;24413;52.450;20.706;2022-09-25T11:21:20;7.28;;;4.25;;
38653;SDS011;24413;52.450;20.706;2022-09-25T11:29:38;8.30;;;4.32;;
38653;SDS011;24413;52.450;20.706;2022-09-25T11:43:08;9.88;;;5.30;;
38653;SDS011;24413;52.450;20.706;2022-09-25T11:45:38;7.18;;;5.10;;
38653;SDS011;24413;52.450;20.706;2022-09-25T11:48:21;6.20;;;5.28;;
38653;SDS011;24413;52.450;20.706;2022-09-25T11:50:57;7.50;;;4.82;;
38653;SDS011;24413;52.450;20.706;2022-09-25T11:57:01;6.32;;;4.60;;
38653;SDS011;24413;52.450;20.706;2022-09-25T12:02:16;5.93;;;4.70;;
38653;SDS011;24413;52.450;20.706;2022-09-25T12:30:02;7.18;;;5.32;;
38653;SDS011;24413;52.450;20.706;2022-09-25T12:43:30;7.78;;;5.13;;
38653;SDS011;24413;52.450;20.706;2022-09-25T12:46:06;5.35;;;4.82;;
38653;SDS011;24413;52.450;20.706;2022-09-25T12:49:09;7.38;;;6.30;;
38653;SDS011;24413;52.450;20.706;2022-09-25T12:54:23;8.07;;;5.05;;
38653;SDS011;24413;52.450;20.706;2022-09-25T13:02:25;8.18;;;5.00;;
38653;SDS011;24413;52.450;20.706;2022-09-25T13:05:05;7.18;;;4.68;;
38653;SDS011;24413;52.450;20.706;2022-09-25T13:07:38;5.03;;;4.55;;
38653;SDS011;24413;52.450;20.706;2022-09-25T13:10:17;8.85;;;4.72;;
38653;SDS011;24413;52.450;20.706;2022-09-25T13:12:45;7.68;;;5.07;;
38653;SDS011;24413;52.450;20.706;2022-09-25T13:15:19;6.60;;;4.75;;
38653;SDS011;24413;52.450;20.706;2022-09-25T13:17:49;4.88;;;4.35;;
38653;SDS011;24413;52.450;20.706;2022-09-25T13:23:02;5.75;;;4.90;;
38653;SDS011;24413;52.450;20.706;2022-09-25T13:25:38;5.10;;;4.60;;
38653;SDS011;24413;52.450;20.706;2022-09-25T13:28:24;5.50;;;4.82;;
38653;SDS011;24413;52.450;20.706;2022-09-25T13:31:23;9.85;;;5.15;;
38653;SDS011;24413;52.450;20.706;2022-09-25T13:34:04;12.20;;;5.97;;
38653;SDS011;24413;52.450;20.706;2022-09-25T13:36:43;9.02;;;6.65;;
38653;SDS011;24413;52.450;20.706;2022-09-25T13:39:18;8.65;;;5.28;;
38653;SDS011;24413;52.450;20.706;2022-09-25T13:42:05;7.72;;;6.28;;
38653;SDS011;24413;52.450;20.706;2022-09-25T13:49:52;7.18;;;5.18;;
38653;SDS011;24413;52.450;20.706;2022-09-25T14:00:20;7.40;;;4.68;;
38653;SDS011;24413;52.450;20.706;2022-09-25T14:02:46;6.55;;;4.90;;
38653;SDS011;24413;52.450;20.706;2022-09-25T14:05:14;6.78;;;5.72;;
38653;SDS011;24413;52.450;20.706;2022-09-25T14:07:53;6.82;;;5.45;;
38653;SDS011;24413;52.450;20.706;2022-09-25T14:10:21;9.50;;;5.75;;
38653;SDS011;24413;52.450;20.706;2022-09-25T14:12:47;6.78;;;4.85;;
38653;SDS011;24413;52.450;20.706;2022-09-25T14:15:27;10.20;;;4.78;;
38653;SDS011;24413;52.450;20.706;2022-09-25T14:17:57;8.52;;;4.90;;
38653;SDS011;24413;52.450;20.706;2022-09-25T14:20:27;5.65;;;5.07;;
38653;SDS011;24413;52.450;20.706;2022-09-25T14:23:05;5.30;;;4.63;;
38653;SDS011;24413;52.450;20.706;2022-09-25T14:25:38;9.60;;;4.50;;
38653;SDS011;24413;52.450;20.706;2022-09-25T14:28:17;5.05;;;4.55;;
38653;SDS011;24413;52.450;20.706;2022-09-25T14:33:29;8.70;;;5.83;;
38653;SDS011;24413;52.450;20.706;2022-09-25T14:41:34;9.18;;;5.25;;
38653;SDS011;24413;52.450;20.706;2022-09-25T14:47:16;8.60;;;5.72;;
38653;SDS011;24413;52.450;20.706;2022-09-25T14:49:44;10.18;;;6.00;;
38653;SDS011;24413;52.450;20.706;2022-09-25T14:52:14;7.10;;;5.65;;
38653;SDS011;24413;52.450;20.706;2022-09-25T14:54:41;8.15;;;5.65;;
38653;SDS011;24413;52.450;20.706;2022-09-25T14:57:09;10.68;;;6.18;;
38653;SDS011;24413;52.450;20.706;2022-09-25T14:59:40;11.82;;;6.88;;
38653;SDS011;24413;52.450;20.706;2022-09-25T15:02:30;11.80;;;7.78;;
38653;SDS011;24413;52.450;20.706;2022-09-25T15:05:27;39.13;;;24.67;;
38653;SDS011;24413;52.450;20.706;2022-09-25T15:07:52;32.40;;;24.10;;
38653;SDS011;24413;52.450;20.706;2022-09-25T15:10:24;50.33;;;39.20;;
38653;SDS011;24413;52.450;20.706;2022-09-25T15:13:09;94.20;;;65.13;;
38653;SDS011;24413;52.450;20.706;2022-09-25T15:15:40;62.38;;;40.72;;
38653;SDS011;24413;52.450;20.706;2022-09-25T15:18:26;36.20;;;20.27;;
38653;SDS011;24413;52.450;20.706;2022-09-25T15:20:52;24.73;;;15.60;;
38653;SDS011;24413;52.450;20.706;2022-09-25T15:23:18;25.73;;;15.18;;
38653;SDS011;24413;52.450;20.706;2022-09-25T15:25:48;20.67;;;12.23;;
38653;SDS011;24413;52.450;20.706;2022-09-25T15:28:16;16.60;;;10.55;;
38653;SDS011;24413;52.450;20.706;2022-09-25T15:30:43;15.45;;;10.82;;
38653;SDS011;24413;52.450;20.706;2022-09-25T15:36:18;17.05;;;11.15;;
38653;SDS011;24413;52.450;20.706;2022-09-25T15:38:54;15.43;;;10.88;;
38653;SDS011;24413;52.450;20.706;2022-09-25T15:41:21;17.38;;;9.95;;
38653;SDS011;24413;52.450;20.706;2022-09-25T15:43:50;13.13;;;8.30;;
38653;SDS011;24413;52.450;20.706;2022-09-25T15:46:25;11.13;;;9.00;;
38653;SDS011;24413;52.450;20.706;2022-09-25T15:48:53;17.10;;;9.38;;
38653;SDS011;24413;52.450;20.706;2022-09-25T15:51:20;14.88;;;9.60;;
38653;SDS011;24413;52.450;20.706;2022-09-25T15:54:02;22.77;;;13.68;;
38653;SDS011;24413;52.450;20.706;2022-09-25T15:56:30;18.85;;;14.65;;
38653;SDS011;24413;52.450;20.706;2022-09-25T15:59:04;23.13;;;15.45;;
38653;SDS011;24413;52.450;20.706;2022-09-25T16:01:38;20.25;;;14.70;;
38653;SDS011;24413;52.450;20.706;2022-09-25T16:04:24;24.92;;;15.60;;
38653;SDS011;24413;52.450;20.706;2022-09-25T16:07:23;25.48;;;16.70;;
38653;SDS011;24413;52.450;20.706;2022-09-25T16:09:52;20.38;;;14.73;;
38653;SDS011;24413;52.450;20.706;2022-09-25T16:14:51;18.23;;;12.27;;
38653;SDS011;24413;52.450;20.706;2022-09-25T16:17:34;19.17;;;12.18;;
38653;SDS011;24413;52.450;20.706;2022-09-25T16:22:51;20.77;;;12.65;;
38653;SDS011;24413;52.450;20.706;2022-09-25T16:25:21;20.05;;;13.45;;
38653;SDS011;24413;52.450;20.706;2022-09-25T16:27:49;21.45;;;13.32;;
38653;SDS011;24413;52.450;20.706;2022-09-25T16:30:20;20.23;;;12.73;;
38653;SDS011;24413;52.450;20.706;2022-09-25T16:32:50;21.83;;;15.18;;
38653;SDS011;24413;52.450;20.706;2022-09-25T16:35:23;20.35;;;14.48;;
38653;SDS011;24413;52.450;20.706;2022-09-25T16:37:52;28.50;;;17.58;;
38653;SDS011;24413;52.450;20.706;2022-09-25T16:40:22;27.17;;;17.90;;
38653;SDS011;24413;52.450;20.706;2022-09-25T16:42:50;32.67;;;17.95;;
38653;SDS011;24413;52.450;20.706;2022-09-25T16:47:44;18.38;;;13.85;;
38653;SDS011;24413;52.450;20.706;2022-09-25T16:50:11;22.67;;;14.00;;
38653;SDS011;24413;52.450;20.706;2022-09-25T16:52:37;18.88;;;13.70;;
38653;SDS011;24413;52.450;20.706;2022-09-25T16:55:10;21.65;;;14.10;;
38653;SDS011;24413;52.450;20.706;2022-09-25T16:57:41;30.27;;;14.18;;
38653;SDS011;24413;52.450;20.706;2022-09-25T17:00:11;18.67;;;14.07;;
38653;SDS011;24413;52.450;20.706;2022-09-25T17:02:40;20.80;;;14.30;;
38653;SDS011;24413;52.450;20.706;2022-09-25T17:05:26;21.70;;;14.27;;
38653;SDS011;24413;52.450;20.706;2022-09-25T17:07:54;22.58;;;14.10;;
38653;SDS011;24413;52.450;20.706;2022-09-25T17:10:25;23.55;;;13.77;;
38653;SDS011;24413;52.450;20.706;2022-09-25T17:12:53;21.08;;;13.90;;
38653;SDS011;24413;52.450;20.706;2022-09-25T17:15:21;22.45;;;15.25;;
38653;SDS011;24413;52.450;20.706;2022-09-25T17:17:49;27.35;;;20.08;;
38653;SDS011;24413;52.450;20.706;2022-09-25T17:20:23;83.03;;;48.70;;
38653;SDS011;24413;52.450;20.706;2022-09-25T17:22:49;95.20;;;64.32;;
38653;SDS011;24413;52.450;20.706;2022-09-25T17:27:54;78.43;;;55.88;;
38653;SDS011;24413;52.450;20.706;2022-09-25T17:30:20;63.88;;;47.22;;
38653;SDS011;24413;52.450;20.706;2022-09-25T17:32:46;72.55;;;48.38;;